Odell, Oregon
Current Conditions -  °F | °C
As of 5:39 PM on Wednesday 26 Nov 2014 (Local Time) from K4S2 Reporting Station
Clear Clear  
Wind Chill: 11°   Ceiling: Unl
Heat Index: 11°   Visibility: 10mi
Dew Point: 10°   Wind: 0mph
Humidity: 94%   Direction: NA
Pressure: 30.06"   Gusts: NA
Location:  45.63°N, 121.55°W
Report Text: K4S2 270139Z AUTO 00000KT 10SM CLR 11/10 A3006 RMK AO2 SLP197 T01100100
Loading
Personal Weather Stations






























Interactive Weather Map New forecast layout! Learn more

10-Day Weather Forecast

Advertisements
Track Severe Weather on mobile